Winthrop, IA

2:20 AM CDT on August 29, 2014 (GMT -0500)
Terrace Drive SE | Change Station
CLOSE
Current Station
Personal Weather Station
Location: Independence, IA
Elevation: 940 ft
Nearby Weather Stations

Elev 940 ft 42.47 °N, 91.88 °W | Updated 7 seconds ago

Overcast
Overcast
67.5 °F
Feels Like 67.5 °F
N
0.0
Wind Variable Wind from WSW
Gusts 19.0 mph

Today
High -- | Low -- °F
--% Chance of Precip.
Yesterday
High -- | Low -- °F
Precip. -- in
6:28 AM 7:46 PM
Waxing Crescent, 12% visible
Pressure 29.95 in
Visibility 3.0 miles
Clouds Overcast 400 ft
Dew Point 66 °F
Humidity 96%
Rainfall 0.08 in
Snow Depth Not available.
UV 0 out of 12
Pollen 1.00 out of 12
Air Quality Not available.
Flu Activity Not available.
METAR KOLZ 290715Z AUTO 20009KT 3SM BR OVC004 20/20 A2995 RMK AO2

More Conditions Fewer Conditions

Pressure 29.95 in
Visibility 3.0 miles
Clouds Overcast 400 ft
Dew Point 66 °F
Humidity 96%
Rainfall 0.08 in
Snow Depth Not available.
UV 0 out of 12
Pollen 1.00 out of 12
Air Quality Not available.
Flu Activity Not available.
METAR KOLZ 290715Z AUTO 20009KT 3SM BR OVC004 20/20 A2995 RMK AO2

More Conditions Fewer Conditions

10-Day Weather Forecast

Almanac

Astronomy

Aug. 29, 2014 Rise Set
Actual Time 6:28 AM CDT 7:46 PM CDT
Civil Twilight 5:59 AM CDT 8:15 PM CDT
Nautical Twilight 5:24 AM CDT 8:50 PM CDT
Astronomical Twilight 4:47 AM CDT 9:26 PM CDT
Moon 10:24 AM CDT 9:37 PM CDT
Length of Visible Light 14h 15m
Length of Day
13h 17m
Tomorrow will be 2m 44s shorter.
Waxing Crescent, 12% of the Moon is Illuminated
Today
Waxing Crescent
Sep 2
First Quarter
Sep 8
Full
Sep 15
Last Quarter
Sep 24
New

Today's Extremes

State Highs State Lows

Community

WunderPhotos

Upload Photos

1,748,197 photos uploaded!

Nearby

Snow Depth

Station Depth Elevation
No new snow has been reported.

Earthquake Activity

City Distance Mag. Time & Date
No recent earthquake activity has been reported nearby.
Minimum magnitude displayed is 2.5.

Coastal Water Temperatures

Place Temperature
No Stations Reporting

Nearby Weather Stations